createdAt,value
2017-05-26T00:02:00.857Z,13.00
2017-05-26T00:04:30.029Z,13.10
2017-05-26T00:06:59.138Z,13.00
2017-05-26T00:09:28.226Z,13.00
2017-05-26T00:11:57.334Z,13.00
2017-05-26T00:14:26.424Z,13.00
2017-05-26T00:16:55.532Z,12.90
2017-05-26T00:19:24.638Z,12.90
2017-05-26T00:21:53.718Z,12.80
2017-05-26T00:24:22.833Z,12.60
2017-05-26T00:26:51.925Z,12.50
2017-05-26T00:29:21.067Z,12.50
2017-05-26T00:31:50.162Z,12.40
2017-05-26T00:34:19.252Z,12.40
2017-05-26T00:36:48.378Z,12.50
2017-05-26T00:39:17.454Z,12.60
2017-05-26T00:41:46.574Z,12.60
2017-05-26T00:44:15.664Z,12.50
2017-05-26T00:46:44.756Z,12.50
2017-05-26T00:49:13.888Z,12.50
2017-05-26T00:51:42.989Z,12.50
2017-05-26T00:54:12.105Z,12.70
2017-05-26T00:56:41.192Z,12.70
2017-05-26T00:59:10.330Z,12.80
2017-05-26T01:01:39.413Z,12.90
2017-05-26T01:04:08.519Z,12.90
2017-05-26T01:06:37.668Z,12.90
2017-05-26T01:09:06.774Z,12.90
2017-05-26T01:11:35.893Z,12.90
2017-05-26T01:14:05.029Z,12.80
2017-05-26T01:16:34.143Z,12.80
2017-05-26T01:19:03.269Z,12.80
2017-05-26T01:21:32.368Z,12.80
2017-05-26T01:24:01.488Z,12.80
2017-05-26T01:26:30.587Z,12.80
2017-05-26T01:28:59.722Z,12.70
2017-05-26T01:31:28.808Z,12.80
2017-05-26T01:33:58.219Z,12.90
2017-05-26T01:36:27.468Z,12.80
2017-05-26T01:38:56.565Z,12.90
2017-05-26T01:41:25.838Z,12.80
2017-05-26T01:43:54.933Z,12.80
2017-05-26T01:46:24.025Z,12.80
2017-05-26T01:48:53.151Z,12.70
2017-05-26T01:51:22.258Z,12.70
2017-05-26T01:53:51.381Z,12.70
2017-05-26T01:56:20.484Z,12.80
2017-05-26T01:58:49.580Z,12.70
2017-05-26T02:01:18.707Z,12.80
2017-05-26T02:03:47.041Z,12.80
2017-05-26T02:06:16.172Z,12.90
2017-05-26T02:08:45.278Z,12.90
2017-05-26T02:11:14.375Z,13.10
2017-05-26T02:13:42.715Z,13.00
2017-05-26T02:16:11.809Z,13.10
2017-05-26T02:18:40.925Z,12.80
2017-05-26T02:21:10.079Z,12.90
2017-05-26T02:23:39.215Z,12.80
2017-05-26T02:26:08.349Z,12.90
2017-05-26T02:28:37.477Z,13.00
2017-05-26T02:31:06.596Z,12.90
2017-05-26T02:33:35.701Z,13.00
2017-05-26T02:36:04.817Z,12.90
2017-05-26T02:38:33.941Z,12.70
2017-05-26T02:41:03.170Z,12.60
2017-05-26T02:43:32.294Z,12.70
2017-05-26T02:46:01.373Z,12.80
2017-05-26T02:48:30.518Z,12.90
2017-05-26T02:50:59.604Z,12.90
2017-05-26T02:53:28.684Z,13.00
2017-05-26T02:55:57.799Z,12.90
2017-05-26T02:58:26.970Z,13.00
2017-05-26T03:00:56.064Z,13.00
2017-05-26T03:03:25.208Z,12.90
2017-05-26T03:05:54.328Z,12.90
2017-05-26T03:08:23.422Z,12.70
2017-05-26T03:10:52.538Z,12.80
2017-05-26T03:13:21.653Z,12.80
2017-05-26T03:15:50.788Z,12.80
2017-05-26T03:18:19.874Z,12.80
2017-05-26T03:20:48.973Z,12.90
2017-05-26T03:23:18.078Z,12.90
2017-05-26T03:25:47.171Z,12.90
2017-05-26T03:28:16.306Z,13.00
2017-05-26T03:30:45.403Z,13.00
2017-05-26T03:33:14.493Z,13.00
2017-05-26T03:35:43.612Z,13.00
2017-05-26T03:38:12.717Z,13.00
2017-05-26T03:40:41.873Z,13.00
2017-05-26T03:43:11.289Z,12.90
2017-05-26T03:45:40.386Z,12.90
2017-05-26T03:48:09.578Z,12.70
2017-05-26T03:50:38.684Z,12.90
2017-05-26T03:53:07.825Z,12.90
2017-05-26T03:55:36.926Z,12.90
2017-05-26T03:58:06.057Z,12.90
2017-05-26T04:00:35.298Z,13.00
2017-05-26T04:03:04.389Z,12.90
2017-05-26T04:05:33.510Z,12.90
2017-05-26T04:08:02.608Z,12.70
2017-05-26T04:10:31.737Z,12.70
2017-05-26T04:13:00.836Z,12.80
2017-05-26T04:15:29.950Z,12.90
2017-05-26T04:17:59.069Z,12.90
2017-05-26T04:20:28.158Z,13.00
2017-05-26T04:22:57.399Z,13.10
2017-05-26T04:25:26.486Z,13.10
2017-05-26T04:27:55.623Z,12.90
2017-05-26T04:30:24.730Z,12.90
2017-05-26T04:32:53.821Z,13.00
2017-05-26T04:35:22.941Z,13.00
2017-05-26T04:37:52.037Z,12.90
2017-05-26T04:40:21.159Z,12.80
2017-05-26T04:42:50.252Z,12.70
2017-05-26T04:45:19.472Z,12.80
2017-05-26T04:47:48.610Z,12.90
2017-05-26T04:50:17.710Z,13.10
2017-05-26T04:52:46.837Z,13.20
2017-05-26T04:55:15.929Z,13.10
2017-05-26T04:57:45.066Z,13.00
2017-05-26T05:00:14.163Z,13.00
2017-05-26T05:02:43.272Z,13.10
2017-05-26T05:05:12.386Z,13.30
2017-05-26T05:07:41.485Z,13.30
2017-05-26T05:10:10.577Z,13.40
2017-05-26T05:12:39.677Z,13.40
2017-05-26T05:15:08.802Z,13.40
2017-05-26T05:17:37.895Z,13.50
2017-05-26T05:20:07.304Z,13.50
2017-05-26T05:22:36.405Z,13.60
2017-05-26T05:25:05.530Z,13.70
2017-05-26T05:27:34.633Z,13.90
2017-05-26T05:30:03.737Z,14.00
2017-05-26T05:32:32.870Z,14.00
2017-05-26T05:35:01.980Z,13.80
2017-05-26T05:37:31.171Z,13.80
2017-05-26T05:40:00.281Z,13.80
2017-05-26T05:42:29.388Z,13.80
2017-05-26T05:44:58.483Z,13.80
2017-05-26T05:47:27.607Z,13.70
2017-05-26T05:49:56.747Z,13.60
2017-05-26T05:52:25.838Z,13.70
2017-05-26T05:54:54.969Z,13.70
2017-05-26T05:57:24.070Z,13.90
2017-05-26T05:59:53.207Z,13.80
2017-05-26T06:02:22.311Z,13.80
2017-05-26T06:04:51.425Z,13.70
2017-05-26T06:07:20.531Z,13.60
2017-05-26T06:09:49.676Z,13.80
2017-05-26T06:12:19.470Z,13.60
2017-05-26T06:14:48.646Z,13.70
2017-05-26T06:17:17.478Z,13.70
2017-05-26T06:19:46.653Z,14.30
2017-05-26T06:22:15.804Z,14.50
2017-05-26T06:24:44.988Z,14.60
2017-05-26T06:27:14.353Z,14.30
2017-05-26T06:29:43.518Z,14.40
2017-05-26T06:32:12.697Z,14.60
2017-05-26T06:34:41.837Z,14.40
2017-05-26T06:37:11.016Z,14.30
2017-05-26T06:39:40.327Z,14.00
2017-05-26T06:42:09.555Z,14.30
2017-05-26T06:44:38.673Z,14.00
2017-05-26T06:47:07.809Z,14.10
2017-05-26T06:49:37.606Z,14.30
2017-05-26T06:52:06.809Z,14.30
2017-05-26T06:54:35.957Z,14.00
2017-05-26T06:57:05.167Z,14.30
2017-05-26T06:59:34.323Z,14.60
2017-05-26T07:02:03.501Z,14.70
2017-05-26T07:04:32.625Z,14.40
2017-05-26T07:07:02.692Z,14.50
2017-05-26T07:09:32.338Z,14.80
2017-05-26T07:12:01.461Z,14.60
2017-05-26T07:14:29.829Z,14.60
2017-05-26T07:16:58.990Z,14.70
2017-05-26T07:19:28.140Z,14.80
2017-05-26T07:21:57.298Z,15.20
2017-05-26T07:24:26.458Z,15.20
2017-05-26T07:26:55.868Z,15.20
2017-05-26T07:29:25.040Z,15.00
2017-05-26T07:31:54.193Z,15.00
2017-05-26T07:34:23.382Z,15.30
2017-05-26T07:36:53.662Z,15.20
2017-05-26T07:39:22.827Z,15.30
2017-05-26T07:41:51.957Z,15.40
2017-05-26T07:44:21.154Z,15.50
2017-05-26T07:46:50.355Z,15.60
2017-05-26T07:49:19.617Z,15.40
2017-05-26T07:51:48.728Z,15.60
2017-05-26T07:54:17.869Z,15.80
2017-05-26T07:56:47.098Z,15.90
2017-05-26T07:59:16.292Z,16.40
2017-05-26T08:01:45.507Z,16.70
2017-05-26T08:04:14.653Z,16.90
2017-05-26T08:06:43.793Z,17.10
2017-05-26T08:09:13.213Z,17.00
2017-05-26T08:11:42.379Z,17.00
2017-05-26T08:14:11.584Z,16.70
2017-05-26T08:16:41.321Z,16.60
2017-05-26T08:19:10.461Z,16.30
2017-05-26T08:21:39.614Z,16.30
2017-05-26T08:24:08.835Z,16.20
2017-05-26T08:26:38.063Z,16.10
2017-05-26T08:29:06.454Z,16.10
2017-05-26T08:31:35.579Z,16.20
2017-05-26T08:34:04.940Z,16.30
2017-05-26T08:36:34.785Z,16.60
2017-05-26T08:39:03.919Z,16.70
2017-05-26T08:41:33.061Z,17.10
2017-05-26T08:44:02.205Z,17.40
2017-05-26T08:46:31.363Z,17.50
2017-05-26T08:49:00.526Z,17.80
2017-05-26T08:51:29.615Z,18.00
2017-05-26T08:53:58.801Z,18.10
2017-05-26T08:56:27.966Z,17.80
2017-05-26T08:58:57.143Z,18.10
2017-05-26T09:01:26.354Z,18.30
2017-05-26T09:03:55.493Z,18.00
2017-05-26T09:06:24.614Z,18.40
2017-05-26T09:08:53.775Z,18.70
2017-05-26T09:11:22.924Z,18.90
2017-05-26T09:13:52.085Z,19.00
2017-05-26T09:16:21.358Z,19.10
2017-05-26T09:18:50.477Z,19.20
2017-05-26T09:21:19.665Z,19.40
2017-05-26T09:23:48.910Z,19.00
2017-05-26T09:26:18.029Z,19.10
2017-05-26T09:28:47.141Z,19.10
2017-05-26T09:31:27.100Z,19.40
2017-05-26T09:33:56.200Z,19.70
2017-05-26T09:36:25.310Z,19.80
2017-05-26T09:38:55.332Z,19.80
2017-05-26T09:41:24.460Z,20.00
2017-05-26T09:43:53.569Z,19.40
2017-05-26T09:46:22.733Z,19.30
2017-05-26T09:48:51.914Z,19.30
2017-05-26T09:51:21.237Z,19.90
2017-05-26T09:53:50.405Z,19.60
2017-05-26T09:56:19.625Z,19.70
2017-05-26T09:58:48.798Z,19.80
2017-05-26T10:01:17.930Z,20.00
2017-05-26T10:03:47.447Z,20.60
2017-05-26T10:06:16.573Z,20.90
2017-05-26T10:08:45.787Z,21.20
2017-05-26T10:11:15.018Z,21.40
2017-05-26T10:13:44.170Z,20.60
2017-05-26T10:16:13.410Z,20.70
2017-05-26T10:18:42.693Z,20.80
2017-05-26T10:21:11.933Z,20.90
2017-05-26T10:23:41.061Z,21.20
2017-05-26T10:26:11.077Z,21.70
2017-05-26T10:28:40.234Z,21.80
2017-05-26T10:31:09.435Z,22.30
2017-05-26T10:33:38.574Z,21.70
2017-05-26T10:36:08.389Z,21.30
2017-05-26T10:38:37.559Z,21.70
2017-05-26T10:41:06.719Z,22.20
2017-05-26T10:43:35.894Z,22.10
2017-05-26T10:46:05.049Z,22.30
2017-05-26T10:48:34.263Z,22.60
2017-05-26T10:51:03.444Z,23.00
2017-05-26T10:53:32.658Z,23.60
2017-05-26T10:56:02.145Z,23.80
2017-05-26T10:58:31.278Z,23.60
2017-05-26T11:01:00.519Z,23.70
2017-05-26T11:03:29.661Z,23.90
2017-05-26T11:05:58.807Z,24.30
2017-05-26T11:08:27.966Z,23.60
2017-05-26T11:10:57.928Z,23.80
2017-05-26T11:13:27.124Z,24.20
2017-05-26T11:15:56.221Z,24.40
2017-05-26T11:18:26.548Z,24.70
2017-05-26T11:20:57.493Z,25.20
2017-05-26T11:23:26.630Z,25.60
2017-05-26T11:25:55.794Z,26.00
2017-05-26T11:28:24.929Z,25.40
2017-05-26T11:30:54.057Z,25.30
2017-05-26T11:33:23.195Z,24.10
2017-05-26T11:35:52.306Z,24.50
2017-05-26T11:38:21.550Z,25.00
2017-05-26T11:40:50.700Z,25.40
2017-05-26T11:43:19.860Z,25.40
2017-05-26T11:45:48.976Z,25.80
2017-05-26T11:48:18.161Z,26.10
2017-05-26T11:50:47.291Z,26.30
2017-05-26T11:53:16.398Z,26.50
2017-05-26T11:55:45.580Z,27.20
2017-05-26T11:58:14.697Z,26.50
2017-05-26T12:00:44.097Z,27.20
2017-05-26T12:03:13.477Z,26.40
2017-05-26T12:05:42.613Z,26.40
2017-05-26T12:08:11.725Z,27.20
2017-05-26T12:10:40.824Z,26.60
2017-05-26T12:13:09.973Z,27.50
2017-05-26T12:15:39.050Z,28.50
2017-05-26T12:18:08.157Z,28.70
2017-05-26T12:20:37.298Z,29.10
2017-05-26T12:23:06.407Z,29.70
2017-05-26T12:25:35.516Z,29.50
2017-05-26T12:28:04.623Z,28.00
2017-05-26T12:30:33.704Z,29.10
2017-05-26T12:33:02.813Z,29.70
2017-05-26T12:35:31.901Z,30.00
2017-05-26T12:38:01.033Z,30.00
2017-05-26T12:40:30.223Z,30.50
2017-05-26T12:42:59.308Z,30.60
2017-05-26T12:45:27.673Z,30.60
2017-05-26T12:47:56.749Z,30.80
2017-05-26T12:50:26.027Z,31.00
2017-05-26T12:52:55.118Z,30.90
2017-05-26T12:55:24.237Z,31.00
2017-05-26T12:57:53.369Z,30.90
2017-05-26T13:00:22.465Z,31.20
2017-05-26T13:02:51.569Z,31.60
2017-05-26T13:05:20.905Z,31.90
2017-05-26T13:07:49.229Z,31.80
2017-05-26T13:10:18.328Z,31.30
2017-05-26T13:12:47.441Z,31.90
2017-05-26T13:15:16.627Z,32.50
2017-05-26T13:17:45.692Z,31.70
2017-05-26T13:20:14.805Z,31.90
2017-05-26T13:22:43.905Z,31.00
2017-05-26T13:25:12.272Z,30.90
2017-05-26T13:27:41.366Z,32.30
2017-05-26T13:30:10.450Z,32.90
2017-05-26T13:32:39.552Z,32.30
2017-05-26T13:35:08.657Z,32.40
2017-05-26T13:37:37.760Z,32.10
2017-05-26T13:40:06.933Z,32.90
2017-05-26T13:42:35.953Z,31.80
2017-05-26T13:45:05.169Z,30.50
2017-05-26T13:47:34.377Z,30.70
2017-05-26T13:50:03.458Z,31.20
2017-05-26T13:52:32.577Z,31.30
2017-05-26T13:55:01.745Z,31.10
2017-05-26T13:57:30.824Z,31.00
2017-05-26T13:59:59.160Z,30.90
2017-05-26T14:02:28.265Z,32.30
2017-05-26T14:04:57.397Z,32.70
2017-05-26T14:07:26.558Z,31.80
2017-05-26T14:09:55.669Z,30.80
2017-05-26T14:12:24.755Z,30.80
2017-05-26T14:14:53.849Z,31.60
2017-05-26T14:17:22.935Z,32.00
2017-05-26T14:19:52.044Z,32.10
2017-05-26T14:22:21.145Z,31.10
2017-05-26T14:24:50.329Z,30.00
2017-05-26T14:27:19.421Z,29.30
2017-05-26T14:29:48.536Z,28.40
2017-05-26T14:32:17.634Z,27.70
2017-05-26T14:34:46.706Z,27.40
2017-05-26T14:37:15.045Z,27.30
2017-05-26T14:39:44.124Z,26.70
2017-05-26T14:42:13.246Z,26.40
2017-05-26T14:44:42.338Z,25.30
2017-05-26T14:47:11.486Z,25.10
2017-05-26T14:49:39.850Z,25.10
2017-05-26T14:52:08.952Z,25.10
2017-05-26T14:54:38.083Z,25.10
2017-05-26T14:57:07.181Z,25.20
2017-05-26T14:59:36.363Z,24.70
2017-05-26T15:02:05.540Z,24.90
2017-05-26T15:04:34.638Z,24.70
2017-05-26T15:07:03.772Z,24.60
2017-05-26T15:09:32.869Z,24.20
2017-05-26T15:12:02.051Z,24.10
2017-05-26T15:14:31.153Z,24.30
2017-05-26T15:17:00.240Z,24.00
2017-05-26T15:19:29.367Z,24.10
2017-05-26T15:21:58.461Z,24.10
2017-05-26T15:24:27.593Z,24.40
2017-05-26T15:26:56.797Z,24.10
2017-05-26T15:29:25.894Z,24.10
2017-05-26T15:31:55.241Z,24.00
2017-05-26T15:34:24.342Z,23.50
2017-05-26T15:36:52.977Z,23.40
2017-05-26T15:39:22.080Z,23.80
2017-05-26T15:41:51.265Z,23.90
2017-05-26T15:44:20.558Z,24.00
2017-05-26T15:46:49.657Z,23.70
2017-05-26T15:49:18.027Z,23.70
2017-05-26T15:51:47.100Z,24.20
2017-05-26T15:54:16.285Z,23.70
2017-05-26T15:56:45.421Z,23.80
2017-05-26T15:59:14.529Z,23.70
2017-05-26T16:01:43.673Z,23.70
2017-05-26T16:04:12.082Z,21.20
2017-05-26T16:06:41.245Z,23.30
2017-05-26T16:09:10.351Z,23.30
2017-05-26T16:11:39.456Z,23.20
2017-05-26T16:14:08.590Z,23.20
2017-05-26T16:16:37.709Z,23.20
2017-05-26T16:19:06.925Z,23.00
2017-05-26T16:21:36.046Z,23.10
2017-05-26T16:24:04.477Z,23.10
2017-05-26T16:26:33.782Z,23.00
2017-05-26T16:29:02.894Z,23.00
2017-05-26T16:31:32.069Z,23.10
2017-05-26T16:34:01.165Z,23.20
2017-05-26T16:36:30.356Z,23.10
2017-05-26T16:38:59.467Z,23.20
2017-05-26T16:41:28.553Z,23.20
2017-05-26T16:43:57.688Z,23.30
2017-05-26T16:46:26.779Z,22.80
2017-05-26T16:48:55.926Z,23.00
2017-05-26T16:51:25.079Z,22.80
2017-05-26T16:53:54.210Z,22.70
2017-05-26T16:56:23.397Z,22.60
2017-05-26T16:58:52.528Z,22.80
2017-05-26T17:01:21.699Z,22.70
2017-05-26T17:03:51.730Z,22.60
2017-05-26T17:06:20.843Z,22.60
2017-05-26T17:08:50.019Z,22.40
2017-05-26T17:11:19.157Z,22.60
2017-05-26T17:13:48.346Z,22.50
2017-05-26T17:16:17.439Z,22.40
2017-05-26T17:18:46.551Z,22.00
2017-05-26T17:21:15.692Z,21.90
2017-05-26T17:23:44.825Z,22.00
2017-05-26T17:26:13.955Z,21.80
2017-05-26T17:28:44.313Z,21.50
2017-05-26T17:31:13.477Z,21.40
2017-05-26T17:33:42.666Z,21.30
2017-05-26T17:36:11.775Z,21.40
2017-05-26T17:38:40.963Z,21.40
2017-05-26T17:41:10.283Z,21.30
2017-05-26T17:43:39.499Z,21.30
2017-05-26T17:46:08.672Z,21.30
2017-05-26T17:48:37.758Z,21.30
2017-05-26T17:51:07.078Z,21.30
2017-05-26T17:53:36.209Z,21.40
2017-05-26T17:56:05.333Z,21.50
2017-05-26T17:58:34.492Z,21.70
2017-05-26T18:01:03.599Z,21.90
2017-05-26T18:03:32.713Z,21.70
2017-05-26T18:06:01.806Z,21.70
2017-05-26T18:08:30.942Z,21.60
2017-05-26T18:11:00.035Z,21.50
2017-05-26T18:13:29.129Z,21.30
2017-05-26T18:15:58.230Z,21.40
2017-05-26T18:18:27.470Z,21.40
2017-05-26T18:20:57.042Z,21.40
2017-05-26T18:23:26.136Z,21.00
2017-05-26T18:25:55.295Z,20.70
2017-05-26T18:28:24.398Z,20.10
2017-05-26T18:30:53.498Z,19.70
2017-05-26T18:33:22.627Z,19.60
2017-05-26T18:35:51.750Z,19.60
2017-05-26T18:38:20.834Z,19.50
2017-05-26T18:40:49.955Z,19.50
2017-05-26T18:43:19.059Z,19.50
2017-05-26T18:45:48.185Z,19.30
2017-05-26T18:48:17.354Z,19.20
2017-05-26T18:50:46.474Z,19.10
2017-05-26T18:53:15.582Z,18.90
2017-05-26T18:55:44.677Z,18.90
2017-05-26T18:58:13.826Z,18.80
2017-05-26T19:00:42.942Z,18.70
2017-05-26T19:03:12.069Z,18.60
2017-05-26T19:05:41.170Z,18.50
2017-05-26T19:08:10.258Z,18.50
2017-05-26T19:10:39.375Z,18.40
2017-05-26T19:13:08.454Z,18.30
2017-05-26T19:15:37.601Z,18.10
2017-05-26T19:18:06.714Z,18.00
2017-05-26T19:20:35.851Z,17.80
2017-05-26T19:23:04.960Z,17.80
2017-05-26T19:25:34.043Z,17.70
2017-05-26T19:28:03.174Z,17.70
2017-05-26T19:30:32.297Z,17.70
2017-05-26T19:33:01.456Z,17.60
2017-05-26T19:35:30.773Z,17.40
2017-05-26T19:37:59.996Z,17.30
2017-05-26T19:40:29.092Z,17.20
2017-05-26T19:42:58.184Z,17.10
2017-05-26T19:45:27.423Z,16.90
2017-05-26T19:47:56.533Z,16.80
2017-05-26T19:50:25.655Z,16.90
2017-05-26T19:52:54.742Z,16.80
2017-05-26T19:55:24.318Z,16.70
2017-05-26T19:57:53.415Z,16.80
2017-05-26T20:00:22.724Z,16.60
2017-05-26T20:02:51.835Z,16.50
2017-05-26T20:05:20.953Z,16.40
2017-05-26T20:07:50.075Z,16.30
2017-05-26T20:10:19.219Z,16.20
2017-05-26T20:12:48.310Z,16.20
2017-05-26T20:15:17.429Z,16.10
2017-05-26T20:17:46.572Z,16.00
2017-05-26T20:20:15.644Z,16.00
2017-05-26T20:22:44.741Z,16.00
2017-05-26T20:25:13.852Z,16.10
2017-05-26T20:27:42.949Z,16.00
2017-05-26T20:30:12.101Z,16.00
2017-05-26T20:32:41.200Z,15.90
2017-05-26T20:35:10.364Z,15.70
2017-05-26T20:37:39.483Z,15.60
2017-05-26T20:40:08.661Z,15.50
2017-05-26T20:42:37.858Z,15.50
2017-05-26T20:45:06.946Z,15.50
2017-05-26T20:47:36.085Z,15.50
2017-05-26T20:50:04.422Z,15.40
2017-05-26T20:52:33.525Z,15.30
2017-05-26T20:55:02.661Z,15.10
2017-05-26T20:57:31.758Z,15.30
2017-05-26T21:00:00.874Z,15.20
2017-05-26T21:02:29.989Z,15.30
2017-05-26T21:04:59.127Z,15.20
2017-05-26T21:07:28.345Z,15.20
2017-05-26T21:09:57.465Z,15.10
2017-05-26T21:12:26.577Z,15.10
2017-05-26T21:14:55.680Z,15.00
2017-05-26T21:17:24.794Z,15.00
2017-05-26T21:19:53.897Z,15.00
2017-05-26T21:22:23.029Z,15.00
2017-05-26T21:24:52.133Z,14.80
2017-05-26T21:27:21.277Z,14.80
2017-05-26T21:29:50.401Z,14.70
2017-05-26T21:32:19.498Z,14.80
2017-05-26T21:34:48.625Z,14.70
2017-05-26T21:37:17.736Z,14.60
2017-05-26T21:39:46.850Z,14.50
2017-05-26T21:42:15.961Z,14.50
2017-05-26T21:44:45.059Z,14.30
2017-05-26T21:47:14.177Z,14.40
2017-05-26T21:49:43.286Z,14.40
2017-05-26T21:52:12.419Z,14.30
2017-05-26T21:54:41.517Z,14.40
2017-05-26T21:57:10.637Z,14.40
2017-05-26T21:59:39.750Z,14.40
2017-05-26T22:02:08.838Z,14.30
2017-05-26T22:04:37.962Z,14.20
2017-05-26T22:07:07.075Z,14.20
2017-05-26T22:09:36.246Z,14.20
2017-05-26T22:12:05.356Z,14.20
2017-05-26T22:14:33.741Z,14.10
2017-05-26T22:17:02.845Z,14.10
2017-05-26T22:19:32.039Z,14.20
2017-05-26T22:22:01.229Z,14.10
2017-05-26T22:24:30.319Z,14.20
2017-05-26T22:26:59.494Z,14.40
2017-05-26T22:29:29.015Z,14.20
2017-05-26T22:31:58.255Z,14.20
2017-05-26T22:34:27.702Z,14.20
2017-05-26T22:36:56.800Z,14.20
2017-05-26T22:39:25.934Z,14.20
2017-05-26T22:41:55.050Z,14.20
2017-05-26T22:44:24.163Z,14.20
2017-05-26T22:46:53.281Z,14.20
2017-05-26T22:49:22.380Z,14.20
2017-05-26T22:51:51.489Z,14.10
2017-05-26T22:54:20.602Z,14.00
2017-05-26T22:56:49.704Z,14.00
2017-05-26T22:59:18.825Z,14.20
2017-05-26T23:01:47.932Z,14.20
2017-05-26T23:04:17.148Z,14.00
2017-05-26T23:06:46.271Z,14.10
2017-05-26T23:09:15.372Z,14.00
2017-05-26T23:11:44.496Z,14.00
2017-05-26T23:14:13.797Z,13.90
2017-05-26T23:16:42.927Z,14.00
2017-05-26T23:19:12.023Z,14.10
2017-05-26T23:21:41.146Z,13.90
2017-05-26T23:24:10.274Z,14.00
2017-05-26T23:26:39.366Z,13.90
2017-05-26T23:29:08.488Z,14.00
2017-05-26T23:31:37.576Z,13.90
2017-05-26T23:34:06.717Z,13.90
2017-05-26T23:36:35.845Z,13.90
2017-05-26T23:39:04.198Z,13.90
2017-05-26T23:41:33.317Z,14.00
2017-05-26T23:44:01.674Z,13.90
2017-05-26T23:46:30.790Z,13.90
2017-05-26T23:48:59.908Z,13.80
2017-05-26T23:51:29.018Z,13.80
2017-05-26T23:53:58.110Z,13.70
2017-05-26T23:56:26.463Z,13.70
2017-05-26T23:58:55.546Z,13.70
